createdAt,value
2018-10-19T00:01:07.989Z,7.37
2018-10-19T00:03:38.824Z,7.53
2018-10-19T00:06:13.405Z,7.70
2018-10-19T00:08:44.664Z,8.07
2018-10-19T00:11:15.350Z,7.27
2018-10-19T00:13:45.626Z,7.77
2018-10-19T00:16:16.127Z,7.67
2018-10-19T00:18:46.610Z,7.30
2018-10-19T00:21:21.212Z,7.67
2018-10-19T00:23:51.685Z,8.00
2018-10-19T00:26:23.199Z,8.17
2018-10-19T00:28:53.695Z,8.10
2018-10-19T00:31:24.145Z,7.83
2018-10-19T00:33:54.629Z,8.10
2018-10-19T00:36:25.117Z,8.07
2018-10-19T00:38:55.626Z,7.53
2018-10-19T00:41:26.038Z,7.10
2018-10-19T00:43:56.534Z,7.87
2018-10-19T00:46:28.031Z,8.00
2018-10-19T00:48:59.288Z,7.93
2018-10-19T00:51:30.544Z,8.87
2018-10-19T00:54:00.912Z,8.93
2018-10-19T00:56:31.386Z,8.67
2018-10-19T00:59:02.715Z,8.83
2018-10-19T01:01:33.024Z,8.60
2018-10-19T01:04:03.508Z,8.80
2018-10-19T01:06:33.891Z,9.30
2018-10-19T01:09:04.431Z,9.00
2018-10-19T01:11:34.860Z,9.00
2018-10-19T01:14:06.111Z,7.73
2018-10-19T01:16:36.581Z,8.80
2018-10-19T01:19:14.235Z,9.50
2018-10-19T01:21:45.373Z,9.23
2018-10-19T01:24:16.623Z,8.50
2018-10-19T01:26:47.875Z,8.83
2018-10-19T01:29:19.113Z,9.17
2018-10-19T01:31:50.373Z,9.63
2018-10-19T01:34:20.859Z,8.90
2018-10-19T01:36:51.335Z,8.93
2018-10-19T01:39:21.698Z,8.93
2018-10-19T01:41:56.297Z,8.73
2018-10-19T01:47:11.917Z,9.60
2018-10-19T01:49:45.372Z,10.70
2018-10-19T01:52:16.614Z,9.43
2018-10-19T01:54:47.104Z,8.87
2018-10-19T01:57:37.968Z,9.20
2018-10-19T02:00:09.235Z,10.90
2018-10-19T02:02:39.727Z,11.20
2018-10-19T02:05:11.044Z,10.23
2018-10-19T02:07:42.235Z,10.07
2018-10-19T02:10:13.475Z,10.13
2018-10-19T02:12:44.715Z,10.20
2018-10-19T02:15:15.474Z,10.27
2018-10-19T02:18:05.234Z,10.77
2018-10-19T02:20:35.740Z,10.47
2018-10-19T02:23:06.172Z,11.63
2018-10-19T02:25:36.775Z,10.03
2018-10-19T02:28:13.397Z,11.73
2018-10-19T02:30:44.657Z,10.93
2018-10-19T02:33:16.172Z,11.13
2018-10-19T02:36:08.819Z,10.23
2018-10-19T02:38:39.312Z,11.00
2018-10-19T02:41:09.863Z,11.30
2018-10-19T02:43:40.249Z,12.23
2018-10-19T02:46:10.739Z,12.13
2018-10-19T02:48:41.212Z,12.97
2018-10-19T02:51:11.764Z,13.13
2018-10-19T02:53:42.396Z,13.20
2018-10-19T02:56:19.072Z,12.90
2018-10-19T02:59:08.024Z,12.27
2018-10-19T03:01:38.385Z,13.20
2018-10-19T03:04:08.858Z,13.00
2018-10-19T03:06:39.347Z,14.10
2018-10-19T03:09:09.899Z,12.60
2018-10-19T03:11:40.405Z,13.10
2018-10-19T03:14:10.954Z,14.00
2018-10-19T03:16:42.217Z,14.40
2018-10-19T03:19:13.473Z,14.33
2018-10-19T03:21:43.846Z,13.87
2018-10-19T03:24:14.340Z,14.20
2018-10-19T03:26:44.834Z,13.47
2018-10-19T03:29:15.258Z,13.60
2018-10-19T03:32:06.094Z,12.97
2018-10-19T03:34:37.328Z,13.53
2018-10-19T03:37:07.805Z,14.57
2018-10-19T03:39:38.296Z,14.73
2018-10-19T03:42:08.792Z,13.20
2018-10-19T03:44:40.050Z,14.60
2018-10-19T03:47:11.347Z,13.70
2018-10-19T03:49:41.812Z,14.73
2018-10-19T03:52:12.414Z,14.27
2018-10-19T03:54:43.938Z,14.80
2018-10-19T03:57:14.463Z,15.60
2018-10-19T03:59:44.899Z,15.10
2018-10-19T04:02:15.401Z,13.60
2018-10-19T04:04:46.655Z,14.03
2018-10-19T04:07:17.903Z,13.53
2018-10-19T04:09:48.404Z,14.03
2018-10-19T04:12:19.799Z,14.77
2018-10-19T04:14:50.172Z,16.97
2018-10-19T04:17:20.659Z,15.30
2018-10-19T04:19:51.151Z,16.17
2018-10-19T04:22:22.394Z,15.00
2018-10-19T04:24:53.639Z,15.60
2018-10-19T04:27:24.929Z,15.93
2018-10-19T04:29:55.232Z,16.27
2018-10-19T04:32:25.614Z,15.57
2018-10-19T04:34:56.082Z,15.13
2018-10-19T04:37:27.319Z,15.83
2018-10-19T04:39:58.594Z,16.43
2018-10-19T04:42:29.062Z,16.00
2018-10-19T04:44:59.574Z,15.10
2018-10-19T04:47:30.027Z,15.40
2018-10-19T04:50:02.428Z,15.73
2018-10-19T04:52:33.666Z,15.73
2018-10-19T04:55:04.163Z,16.90
2018-10-19T04:57:34.657Z,15.73
2018-10-19T05:00:05.027Z,17.33
2018-10-19T05:02:35.560Z,17.93
2018-10-19T05:05:06.353Z,16.13
2018-10-19T05:07:41.851Z,17.73
2018-10-19T05:10:12.331Z,18.43
2018-10-19T05:12:42.737Z,16.93
2018-10-19T05:15:13.223Z,16.33
2018-10-19T05:17:43.702Z,17.00
2018-10-19T05:20:14.154Z,16.93
2018-10-19T05:23:06.024Z,18.40
2018-10-19T05:25:36.425Z,20.10
2018-10-19T05:28:13.057Z,16.70
2018-10-19T05:30:43.529Z,18.07
2018-10-19T05:33:15.018Z,17.83
2018-10-19T05:35:46.935Z,17.03
2018-10-19T05:38:37.817Z,17.57
2018-10-19T05:41:08.275Z,17.00
2018-10-19T05:43:41.457Z,16.13
2018-10-19T05:46:11.846Z,16.37
2018-10-19T05:48:42.361Z,15.37
2018-10-19T05:51:13.623Z,16.97
2018-10-19T05:53:44.115Z,17.50
2018-10-19T05:56:14.682Z,14.77
2018-10-19T05:58:45.250Z,15.67
2018-10-19T06:01:35.133Z,17.43
2018-10-19T06:04:24.881Z,17.90
2018-10-19T06:06:55.366Z,17.60
2018-10-19T06:12:07.642Z,15.90
2018-10-19T06:14:38.116Z,14.83
2018-10-19T06:17:08.715Z,26.73
2018-10-19T06:19:39.110Z,17.17
2018-10-19T06:22:09.591Z,17.47
2018-10-19T06:25:00.478Z,16.60
2018-10-19T06:27:30.848Z,18.33
2018-10-19T06:30:01.505Z,19.10
2018-10-19T06:32:32.995Z,17.57
2018-10-19T06:35:05.581Z,17.93
2018-10-19T06:37:35.998Z,17.90
2018-10-19T06:40:08.530Z,17.40
2018-10-19T06:42:39.774Z,18.33
2018-10-19T06:45:10.924Z,18.77
2018-10-19T06:47:42.152Z,17.83
2018-10-19T06:50:12.754Z,18.60
2018-10-19T06:52:43.014Z,16.70
2018-10-19T06:55:13.532Z,18.23
2018-10-19T06:57:46.056Z,17.97
2018-10-19T07:00:16.536Z,19.37
2018-10-19T07:02:47.047Z,19.90
2018-10-19T07:05:17.415Z,19.30
2018-10-19T07:07:48.605Z,29.77
2018-10-19T07:10:19.056Z,19.53
2018-10-19T07:12:49.536Z,19.63
2018-10-19T07:15:20.014Z,19.30
2018-10-19T07:17:50.518Z,19.27
2018-10-19T07:20:25.105Z,19.67
2018-10-19T07:22:56.382Z,19.40
2018-10-19T07:25:26.867Z,19.37
2018-10-19T07:27:57.352Z,19.13
2018-10-19T07:30:27.859Z,18.30
2018-10-19T07:32:58.345Z,19.97
2018-10-19T07:35:28.829Z,18.70
2018-10-19T07:37:59.335Z,18.83
2018-10-19T07:40:29.807Z,20.30
2018-10-19T07:43:19.675Z,21.13
2018-10-19T07:45:53.231Z,20.53
2018-10-19T07:48:23.617Z,20.67
2018-10-19T07:51:13.232Z,14.93
2018-10-19T07:53:50.674Z,27.35
2018-10-19T07:56:21.045Z,21.03
2018-10-19T07:58:51.520Z,20.27
2018-10-19T08:01:21.994Z,21.27
2018-10-19T08:03:52.479Z,21.60
2018-10-19T08:06:22.968Z,17.50
2018-10-19T08:08:54.112Z,20.23
2018-10-19T08:11:25.307Z,21.93
2018-10-19T08:13:56.573Z,20.13
2018-10-19T08:16:27.765Z,20.27
2018-10-19T08:18:58.274Z,21.10
2018-10-19T08:21:29.519Z,21.67
2018-10-19T08:24:00.668Z,19.87
2018-10-19T08:26:31.141Z,20.17
2018-10-19T08:29:03.731Z,22.70
2018-10-19T08:31:34.923Z,22.33
2018-10-19T08:34:06.188Z,21.13
2018-10-19T08:36:36.676Z,22.53
2018-10-19T08:39:07.168Z,22.17
2018-10-19T08:41:41.885Z,22.60
2018-10-19T08:44:12.259Z,22.57
2018-10-19T08:46:42.736Z,20.57
2018-10-19T08:49:13.345Z,22.47
2018-10-19T08:51:43.610Z,22.10
2018-10-19T08:54:13.972Z,22.80
2018-10-19T08:56:44.487Z,21.97
2018-10-19T08:59:15.073Z,20.60
2018-10-19T09:01:45.451Z,19.97
2018-10-19T09:04:16.263Z,23.53
2018-10-19T09:07:07.017Z,21.40
2018-10-19T09:09:38.169Z,22.93
2018-10-19T09:12:09.431Z,21.90
2018-10-19T09:14:39.909Z,23.83
2018-10-19T09:17:10.420Z,20.90
2018-10-19T09:19:41.153Z,22.53
2018-10-19T09:22:11.802Z,23.93
2018-10-19T09:24:42.186Z,23.77
2018-10-19T09:27:12.756Z,23.97
2018-10-19T09:29:43.142Z,22.70
2018-10-19T09:32:14.471Z,22.47
2018-10-19T09:34:46.737Z,24.27
2018-10-19T09:37:17.997Z,22.53
2018-10-19T09:39:49.244Z,22.00
2018-10-19T09:42:20.495Z,24.13
2018-10-19T09:44:50.976Z,22.60
2018-10-19T09:47:21.495Z,22.67
2018-10-19T09:49:53.997Z,22.50
2018-10-19T09:52:24.850Z,21.67
2018-10-19T09:54:55.050Z,24.23
2018-10-19T09:57:25.359Z,23.00
2018-10-19T09:59:57.876Z,20.33
2018-10-19T10:02:29.146Z,23.77
2018-10-19T10:04:59.662Z,21.17
2018-10-19T10:07:30.111Z,24.60
2018-10-19T10:10:00.600Z,23.23
2018-10-19T10:12:31.084Z,22.00
2018-10-19T10:15:21.738Z,21.37
2018-10-19T10:17:52.106Z,24.73
2018-10-19T10:20:27.611Z,23.07
2018-10-19T10:22:59.017Z,23.30
2018-10-19T10:25:48.581Z,21.60
2018-10-19T10:28:18.955Z,21.00
2018-10-19T10:30:49.438Z,22.83
2018-10-19T10:33:27.087Z,23.60
2018-10-19T10:35:58.501Z,23.37
2018-10-19T10:38:28.874Z,23.07
2018-10-19T10:43:43.592Z,22.03
2018-10-19T10:46:16.224Z,22.20
2018-10-19T10:48:46.476Z,22.10
2018-10-19T10:51:16.969Z,23.57
2018-10-19T10:53:47.450Z,22.13
2018-10-19T10:56:24.059Z,23.50
2018-10-19T10:58:54.558Z,23.60
2018-10-19T11:01:29.025Z,23.47
2018-10-19T11:04:00.189Z,24.73
2018-10-19T11:06:31.411Z,24.50
2018-10-19T11:09:02.663Z,21.70
2018-10-19T11:11:33.143Z,21.93
2018-10-19T11:14:10.682Z,24.87
2018-10-19T11:16:42.158Z,21.97
2018-10-19T11:19:12.625Z,20.30
2018-10-19T11:21:43.729Z,22.23
2018-10-19T11:24:14.126Z,20.70
2018-10-19T11:26:45.473Z,21.77
2018-10-19T11:29:16.612Z,22.37
2018-10-19T11:31:46.964Z,22.13
2018-10-19T11:34:17.466Z,21.07
2018-10-19T11:36:47.752Z,20.57
2018-10-19T11:39:18.154Z,21.90
2018-10-19T11:41:48.484Z,20.53
2018-10-19T11:44:18.874Z,21.10
2018-10-19T11:46:49.280Z,20.50
2018-10-19T11:49:19.754Z,22.70
2018-10-19T11:51:50.059Z,20.93
2018-10-19T11:54:21.244Z,21.37
2018-10-19T11:56:54.340Z,21.00
2018-10-19T11:59:24.712Z,19.37
2018-10-19T12:01:55.121Z,19.03
2018-10-19T12:04:25.456Z,20.30
2018-10-19T12:06:55.809Z,19.60
2018-10-19T12:09:26.198Z,15.97
2018-10-19T12:11:56.586Z,17.63
2018-10-19T12:14:27.173Z,18.30
2018-10-19T12:16:57.684Z,19.00
2018-10-19T12:19:27.977Z,19.27
2018-10-19T12:22:02.937Z,16.83
2018-10-19T12:24:33.265Z,17.37
2018-10-19T12:27:03.688Z,17.90
2018-10-19T12:29:36.521Z,17.17
2018-10-19T12:32:06.914Z,17.83
2018-10-19T12:34:37.297Z,17.70
2018-10-19T12:37:09.855Z,16.77
2018-10-19T12:39:43.031Z,17.27
2018-10-19T12:42:16.019Z,17.60
2018-10-19T12:44:49.993Z,17.70
2018-10-19T12:47:26.151Z,16.33
2018-10-19T12:49:56.416Z,16.60
2018-10-19T12:52:27.580Z,16.20
2018-10-19T12:54:58.078Z,17.30
2018-10-19T12:57:29.853Z,15.83
2018-10-19T13:00:00.220Z,16.73
2018-10-19T13:02:30.626Z,16.30
2018-10-19T13:05:01.029Z,17.00
2018-10-19T13:07:34.400Z,17.13
2018-10-19T13:10:04.814Z,17.63
2018-10-19T13:12:38.026Z,16.53
2018-10-19T13:15:14.251Z,15.70
2018-10-19T13:17:47.204Z,16.50
2018-10-19T13:20:20.571Z,15.60
2018-10-19T13:22:53.949Z,13.70
2018-10-19T13:28:05.990Z,13.70
2018-10-19T13:30:41.531Z,14.77
2018-10-19T13:33:14.852Z,17.17
2018-10-19T13:35:50.138Z,17.50
2018-10-19T13:38:24.647Z,16.30
2018-10-19T13:40:57.642Z,16.80
2018-10-19T13:43:38.114Z,15.67
2018-10-19T13:46:13.464Z,14.03
2018-10-19T13:48:46.538Z,16.23
2018-10-19T13:51:21.440Z,15.83
2018-10-19T13:53:59.886Z,17.50
2018-10-19T13:56:50.123Z,15.60
2018-10-19T13:59:20.537Z,17.07
2018-10-19T14:01:53.514Z,15.40
2018-10-19T14:04:23.901Z,16.17
2018-10-19T14:06:59.830Z,15.53
2018-10-19T14:09:30.994Z,13.97
2018-10-19T14:12:03.810Z,14.40
2018-10-19T14:14:34.163Z,14.10
2018-10-19T14:17:04.593Z,16.40
2018-10-19T14:19:36.292Z,15.87
2018-10-19T14:22:06.695Z,17.17
2018-10-19T14:24:40.903Z,16.77
2018-10-19T14:27:14.101Z,16.67
2018-10-19T14:29:47.085Z,15.57
2018-10-19T14:32:20.694Z,16.53
2018-10-19T14:34:54.316Z,15.10
2018-10-19T14:37:24.719Z,14.00
2018-10-19T14:40:01.635Z,14.90
2018-10-19T14:42:34.910Z,15.10
2018-10-19T14:45:07.812Z,12.80
2018-10-19T14:47:41.052Z,14.97
2018-10-19T14:50:14.331Z,15.37
2018-10-19T14:52:44.721Z,14.53
2018-10-19T14:55:19.839Z,13.67
2018-10-19T14:57:53.573Z,13.87
2018-10-19T15:00:23.976Z,17.77
2018-10-19T15:02:56.892Z,14.00
2018-10-19T15:05:30.466Z,15.33
2018-10-19T15:08:04.288Z,15.83
2018-10-19T15:10:35.648Z,15.40
2018-10-19T15:13:05.759Z,15.53
2018-10-19T15:15:36.162Z,15.03
2018-10-19T15:18:09.960Z,14.90
2018-10-19T15:20:45.503Z,13.40
2018-10-19T15:23:16.670Z,15.97
2018-10-19T15:25:47.072Z,15.33
2018-10-19T15:28:18.256Z,15.77
2018-10-19T15:30:51.264Z,12.73
2018-10-19T15:33:45.532Z,15.97
2018-10-19T15:36:16.011Z,14.50
2018-10-19T15:38:46.329Z,16.23
2018-10-19T15:41:16.925Z,13.40
2018-10-19T15:43:53.470Z,14.10
2018-10-19T15:46:32.441Z,13.87
2018-10-19T15:49:02.787Z,14.47
2018-10-19T15:51:33.191Z,15.20
2018-10-19T15:54:09.288Z,15.23
2018-10-19T15:56:39.562Z,14.43
2018-10-19T15:59:09.946Z,15.83
2018-10-19T16:01:45.805Z,14.30
2018-10-19T16:04:19.609Z,14.93
2018-10-19T16:06:49.990Z,13.93
2018-10-19T16:09:48.228Z,14.00
2018-10-19T16:12:18.628Z,15.97
2018-10-19T16:14:51.777Z,16.33
2018-10-19T16:17:29.288Z,13.93
2018-10-19T16:19:59.683Z,14.07
2018-10-19T16:22:30.114Z,14.43
2018-10-19T16:25:04.076Z,14.37
2018-10-19T16:27:37.140Z,15.50
2018-10-19T16:30:10.561Z,15.07
2018-10-19T16:32:40.833Z,14.87
2018-10-19T16:37:56.533Z,14.67
2018-10-19T16:40:26.927Z,15.17
2018-10-19T16:42:58.077Z,14.93
2018-10-19T16:45:28.497Z,14.70
2018-10-19T16:47:59.603Z,15.20
2018-10-19T16:50:34.078Z,13.57
2018-10-19T16:53:04.564Z,13.70
2018-10-19T16:55:37.601Z,14.50
2018-10-19T16:58:08.091Z,14.90
2018-10-19T17:00:41.612Z,14.87
2018-10-19T17:03:12.788Z,14.03
2018-10-19T17:05:43.182Z,14.20
2018-10-19T17:08:17.312Z,14.97
2018-10-19T17:10:50.409Z,14.73
2018-10-19T17:13:20.801Z,14.07
2018-10-19T17:15:51.207Z,13.47
2018-10-19T17:18:21.890Z,13.67
2018-10-19T17:20:52.294Z,14.23
2018-10-19T17:23:30.157Z,14.37
2018-10-19T17:26:06.450Z,13.77
2018-10-19T17:28:41.796Z,13.27
2018-10-19T17:31:12.317Z,14.33
2018-10-19T17:34:05.797Z,13.47
2018-10-19T17:36:36.196Z,14.83
2018-10-19T17:39:06.610Z,15.63
2018-10-19T17:41:36.986Z,15.07
2018-10-19T17:44:13.837Z,15.43
2018-10-19T17:46:44.255Z,13.70
2018-10-19T17:49:17.289Z,15.03
2018-10-19T17:51:52.629Z,15.20
2018-10-19T17:54:29.374Z,16.53
2018-10-19T17:57:02.211Z,16.93
2018-10-19T18:00:06.296Z,16.07
2018-10-19T18:02:39.554Z,17.03
2018-10-19T18:05:10.059Z,15.70
2018-10-19T18:07:41.363Z,15.03
2018-10-19T18:10:11.777Z,17.00
2018-10-19T18:12:47.701Z,18.70
2018-10-19T18:15:23.309Z,23.07
2018-10-19T18:17:54.404Z,19.13
2018-10-19T18:20:46.929Z,18.90
2018-10-19T18:23:18.612Z,22.90
2018-10-19T18:25:49.502Z,18.47
2018-10-19T18:28:19.902Z,18.07
2018-10-19T18:30:50.294Z,17.43
2018-10-19T18:33:41.094Z,17.07
2018-10-19T18:36:33.683Z,17.50
2018-10-19T18:39:04.098Z,18.33
2018-10-19T18:41:37.497Z,17.90
2018-10-19T18:44:08.691Z,19.10
2018-10-19T18:46:38.929Z,19.10
2018-10-19T18:49:16.471Z,18.87
2018-10-19T18:51:52.797Z,19.90
2018-10-19T18:54:23.205Z,18.50
2018-10-19T18:56:56.400Z,16.63
2018-10-19T18:59:26.803Z,19.07
2018-10-19T19:01:57.272Z,17.77
2018-10-19T19:04:33.221Z,19.23
2018-10-19T19:07:03.634Z,18.60
2018-10-19T19:09:36.636Z,16.37
2018-10-19T19:12:09.567Z,17.73
2018-10-19T19:14:47.540Z,18.67
2018-10-19T19:17:19.989Z,16.00
2018-10-19T19:19:57.948Z,17.53
2018-10-19T19:22:31.379Z,18.13
2018-10-19T19:25:23.065Z,18.00
2018-10-19T19:27:56.218Z,18.10
2018-10-19T19:30:33.233Z,17.20
2018-10-19T19:36:05.392Z,18.53
2018-10-19T19:38:40.469Z,16.17
2018-10-19T19:41:10.970Z,17.07
2018-10-19T19:44:03.512Z,17.57
2018-10-19T19:46:34.612Z,19.13
2018-10-19T19:49:25.960Z,16.93
2018-10-19T19:51:59.707Z,19.47
2018-10-19T19:54:30.109Z,18.37
2018-10-19T19:57:07.058Z,18.00
2018-10-19T19:59:45.707Z,18.00
2018-10-19T20:02:16.181Z,18.50
2018-10-19T20:04:52.526Z,17.17
2018-10-19T20:07:22.904Z,19.27
2018-10-19T20:09:53.523Z,18.93
2018-10-19T20:12:26.531Z,17.90
2018-10-19T20:15:02.987Z,17.43
2018-10-19T20:17:35.907Z,17.67
2018-10-19T20:20:13.369Z,16.13
2018-10-19T20:22:49.457Z,17.30
2018-10-19T20:25:27.024Z,18.37
2018-10-19T20:28:09.097Z,16.70
2018-10-19T20:30:48.307Z,16.37
2018-10-19T20:33:25.383Z,18.27
2018-10-19T20:35:55.632Z,17.57
2018-10-19T20:38:31.428Z,18.03
2018-10-19T20:41:01.924Z,18.67
2018-10-19T20:43:35.933Z,17.40
2018-10-19T20:46:07.112Z,17.17
2018-10-19T20:48:39.585Z,17.80
2018-10-19T20:51:12.900Z,17.70
2018-10-19T20:53:51.382Z,17.40
2018-10-19T20:56:27.480Z,16.90
2018-10-19T20:59:02.669Z,17.53
2018-10-19T21:01:47.657Z,18.77
2018-10-19T21:04:18.067Z,17.60
2018-10-19T21:06:51.038Z,17.93
2018-10-19T21:09:21.444Z,16.73
2018-10-19T21:11:51.869Z,15.90
2018-10-19T21:14:24.978Z,16.70
2018-10-19T21:16:55.368Z,16.93
2018-10-19T21:19:25.825Z,17.63
2018-10-19T21:25:03.053Z,17.57
2018-10-19T21:27:37.914Z,17.10
2018-10-19T21:30:08.323Z,17.23
2018-10-19T21:32:38.715Z,16.87
2018-10-19T21:35:09.163Z,17.37
2018-10-19T21:37:42.277Z,16.80
2018-10-19T21:40:17.901Z,17.13
2018-10-19T21:42:51.661Z,17.67
2018-10-19T21:45:26.145Z,16.23
2018-10-19T21:47:56.550Z,16.07
2018-10-19T21:50:29.551Z,16.03
2018-10-19T21:53:00.724Z,16.03
2018-10-19T21:55:31.113Z,16.50
2018-10-19T21:58:02.547Z,16.50
2018-10-19T22:00:33.122Z,16.30
2018-10-19T22:03:03.545Z,16.13
2018-10-19T22:05:36.547Z,17.80
2018-10-19T22:08:09.436Z,16.87
2018-10-19T22:10:39.846Z,16.53
2018-10-19T22:13:10.383Z,16.07
2018-10-19T22:15:43.860Z,17.10
2018-10-19T22:18:15.806Z,15.57
2018-10-19T22:20:46.199Z,15.97
2018-10-19T22:23:16.814Z,16.40
2018-10-19T22:25:49.467Z,16.47
2018-10-19T22:28:19.793Z,15.33
2018-10-19T22:30:50.971Z,14.23
2018-10-19T22:33:24.450Z,15.93
2018-10-19T22:35:55.893Z,14.17
2018-10-19T22:38:26.294Z,14.70
2018-10-19T22:40:57.480Z,13.23
2018-10-19T22:43:27.801Z,13.20
2018-10-19T22:45:58.212Z,12.80
2018-10-19T22:48:28.603Z,12.67
2018-10-19T22:50:59.018Z,12.60
2018-10-19T22:53:30.431Z,11.93
2018-10-19T22:56:00.832Z,11.60
2018-10-19T22:58:32.011Z,11.87
2018-10-19T23:01:02.469Z,10.80
2018-10-19T23:03:34.851Z,10.20
2018-10-19T23:06:05.209Z,11.03
2018-10-19T23:08:35.598Z,10.50
2018-10-19T23:11:06.032Z,9.37
2018-10-19T23:13:36.394Z,9.50
2018-10-19T23:16:06.785Z,9.17
2018-10-19T23:18:37.188Z,8.80
2018-10-19T23:21:28.040Z,8.33
2018-10-19T23:23:58.400Z,9.53
2018-10-19T23:26:28.800Z,8.17
2018-10-19T23:28:59.267Z,8.27
2018-10-19T23:31:30.540Z,8.33
2018-10-19T23:34:00.768Z,8.00
2018-10-19T23:36:31.169Z,8.33
2018-10-19T23:39:01.568Z,8.27
2018-10-19T23:41:31.970Z,7.93
2018-10-19T23:44:03.127Z,8.43
2018-10-19T23:46:34.228Z,7.07
2018-10-19T23:49:05.693Z,7.50
2018-10-19T23:51:38.027Z,7.60
2018-10-19T23:54:08.349Z,8.20
2018-10-19T23:56:39.773Z,7.60
2018-10-19T23:59:10.246Z,7.77
